createdAt,value
2022-09-15T00:02:22.166Z,11.33
2022-09-15T00:07:24.256Z,11.40
2022-09-15T00:12:29.441Z,12.10
2022-09-15T00:17:31.602Z,12.27
2022-09-15T00:22:33.647Z,12.60
2022-09-15T00:27:35.480Z,13.13
2022-09-15T00:32:37.212Z,14.13
2022-09-15T00:37:39.147Z,14.67
2022-09-15T00:42:41.083Z,14.80
2022-09-15T00:47:42.882Z,15.87
2022-09-15T00:53:00.065Z,16.27
2022-09-15T00:58:09.785Z,15.67
2022-09-15T01:03:11.675Z,16.63
2022-09-15T01:08:32.514Z,14.70
2022-09-15T01:13:34.262Z,13.43
2022-09-15T01:18:54.089Z,12.30
2022-09-15T01:27:50.987Z,14.77
2022-09-15T01:33:04.531Z,13.60
2022-09-15T01:38:30.828Z,12.70
2022-09-15T01:43:35.019Z,15.83
2022-09-15T01:48:37.518Z,15.73
2022-09-15T01:53:39.822Z,13.93
2022-09-15T01:58:41.753Z,14.53
2022-09-15T02:03:55.465Z,13.37
2022-09-15T02:09:02.903Z,14.50
2022-09-15T02:14:15.584Z,14.77
2022-09-15T02:19:41.467Z,13.77
2022-09-15T02:24:49.990Z,12.67
2022-09-15T02:29:53.814Z,12.33
2022-09-15T02:34:55.940Z,12.27
2022-09-15T02:39:58.438Z,14.90
2022-09-15T02:45:01.605Z,14.73
2022-09-15T02:50:03.807Z,14.20
2022-09-15T02:55:06.035Z,12.80
2022-09-15T03:05:50.753Z,12.17
2022-09-15T03:10:52.460Z,13.00
2022-09-15T03:15:54.185Z,13.73
2022-09-15T03:20:59.840Z,12.83
2022-09-15T03:26:02.410Z,11.53
2022-09-15T03:31:04.542Z,14.80
2022-09-15T03:36:06.926Z,14.30
2022-09-15T03:41:14.530Z,15.60
2022-09-15T03:46:18.998Z,15.20
2022-09-15T03:51:21.208Z,14.90
2022-09-15T03:56:32.958Z,15.87
2022-09-15T04:01:35.426Z,14.97
2022-09-15T04:06:37.913Z,15.50
2022-09-15T04:11:40.860Z,16.37
2022-09-15T04:16:51.536Z,15.53
2022-09-15T04:21:53.273Z,14.13
2022-09-15T04:26:55.038Z,14.17
2022-09-15T04:31:56.912Z,13.80
2022-09-15T04:37:00.381Z,13.60
2022-09-15T04:42:05.803Z,14.00
2022-09-15T04:47:07.776Z,12.80
2022-09-15T04:52:12.936Z,12.37
2022-09-15T04:57:14.707Z,13.60
2022-09-15T05:02:19.593Z,12.60
2022-09-15T05:07:21.295Z,12.87
2022-09-15T05:12:23.004Z,12.37
2022-09-15T05:17:48.868Z,11.50
2022-09-15T05:22:50.512Z,11.47
2022-09-15T05:27:52.165Z,11.50
2022-09-15T05:32:54.394Z,12.07
2022-09-15T05:38:03.058Z,11.83
2022-09-15T05:43:07.537Z,11.53
2022-09-15T05:48:11.257Z,11.47
2022-09-15T05:53:12.991Z,11.93
2022-09-15T05:58:41.790Z,11.43
2022-09-15T06:03:44.731Z,11.70
2022-09-15T06:09:50.341Z,11.10
2022-09-15T06:14:53.133Z,14.27
2022-09-15T06:26:19.135Z,11.07
2022-09-15T06:31:42.927Z,10.20
2022-09-15T07:02:25.819Z,9.53
2022-09-15T07:14:05.259Z,9.07
2022-09-15T07:19:07.172Z,6.90
2022-09-15T07:24:10.517Z,8.07
2022-09-15T07:29:12.208Z,8.03
2022-09-15T07:34:13.961Z,8.10
2022-09-15T07:46:21.753Z,6.13
2022-09-15T07:51:23.826Z,6.17
2022-09-15T15:37:22.686Z,1.20
2022-09-15T15:47:50.654Z,0.60
2022-09-15T15:53:02.918Z,4.57
2022-09-15T15:58:05.423Z,1.43
2022-09-15T16:27:48.153Z,1.37
2022-09-15T16:32:50.086Z,1.17
2022-09-15T16:37:51.848Z,0.80
2022-09-15T16:42:53.820Z,1.10
2022-09-15T16:48:08.895Z,1.13
2022-09-15T16:53:20.777Z,21.87
2022-09-15T16:58:22.625Z,2.37
2022-09-15T17:03:26.201Z,1.47
2022-09-15T17:08:38.194Z,1.13
2022-09-15T17:13:40.036Z,0.70
2022-09-15T17:18:51.172Z,0.70
2022-09-15T17:23:59.157Z,0.80
2022-09-15T17:34:16.980Z,0.80
2022-09-15T17:39:21.667Z,0.77
2022-09-15T17:44:34.408Z,1.03
2022-09-15T17:49:42.676Z,1.07
2022-09-15T17:54:44.691Z,1.30
2022-09-15T17:59:46.630Z,1.17
2022-09-15T18:04:49.616Z,0.80
2022-09-15T18:09:51.441Z,0.77
2022-09-15T18:15:36.570Z,0.80
2022-09-15T18:20:39.362Z,1.10
2022-09-15T18:25:43.063Z,1.03
2022-09-15T18:30:49.508Z,1.90
2022-09-15T18:35:54.749Z,1.20
2022-09-15T18:41:05.458Z,1.33
2022-09-15T18:46:16.040Z,0.67
2022-09-15T18:51:40.968Z,0.77
2022-09-15T18:56:51.336Z,0.60
2022-09-15T19:02:17.375Z,0.57
2022-09-15T19:07:19.454Z,0.87
2022-09-15T19:17:23.109Z,0.80
2022-09-15T19:22:35.932Z,1.10
2022-09-15T19:27:41.275Z,0.80
2022-09-15T19:32:43.241Z,0.97
2022-09-15T19:37:45.172Z,1.43
2022-09-15T19:42:46.858Z,1.20
2022-09-15T19:47:52.681Z,0.70
2022-09-15T19:52:59.452Z,1.43
2022-09-15T19:58:01.730Z,1.20
2022-09-15T20:03:06.157Z,1.10
2022-09-15T20:08:07.927Z,1.30
2022-09-15T20:13:11.647Z,0.90
2022-09-15T20:18:13.510Z,1.80
2022-09-15T20:23:15.283Z,1.00
2022-09-15T20:28:21.520Z,0.70
2022-09-15T20:33:26.269Z,0.97
2022-09-15T20:38:28.411Z,0.70
2022-09-15T20:43:38.783Z,0.77
2022-09-15T20:48:41.843Z,0.70
2022-09-15T20:53:52.777Z,0.87
2022-09-15T20:58:59.115Z,1.10
2022-09-15T21:04:00.902Z,1.33
2022-09-15T21:09:07.527Z,0.60
2022-09-15T21:14:13.276Z,0.90
2022-09-15T21:19:15.822Z,0.90
2022-09-15T21:24:17.502Z,0.90
2022-09-15T21:29:19.337Z,1.03
2022-09-15T21:34:21.200Z,1.00
2022-09-15T21:39:22.975Z,19.73
2022-09-15T21:44:25.105Z,9.43
2022-09-15T21:49:26.821Z,4.70
2022-09-15T21:54:34.062Z,1.93
2022-09-15T21:59:35.821Z,0.80
2022-09-15T22:04:38.363Z,1.23
2022-09-15T22:09:41.233Z,0.57
2022-09-15T22:14:42.915Z,0.63
2022-09-15T22:19:44.673Z,1.10
2022-09-15T22:24:49.714Z,0.80
2022-09-15T22:29:51.444Z,1.00
2022-09-15T22:34:53.300Z,1.00
2022-09-15T22:39:59.432Z,1.00
2022-09-15T22:45:01.977Z,0.50
2022-09-15T22:50:22.610Z,0.80
2022-09-15T22:55:26.872Z,1.40
2022-09-15T23:00:30.418Z,0.63
2022-09-15T23:05:34.650Z,0.87
2022-09-15T23:10:36.631Z,0.70
2022-09-15T23:15:38.741Z,0.67
2022-09-15T23:20:42.436Z,1.20
2022-09-15T23:25:46.744Z,0.90
2022-09-15T23:30:55.760Z,1.03
2022-09-15T23:36:02.656Z,0.73
2022-09-15T23:41:04.678Z,1.00
2022-09-15T23:46:08.955Z,1.10
2022-09-15T23:51:12.729Z,1.23
2022-09-15T23:56:14.542Z,0.67
